Weather at Penang International Airport

Public forecast

Using degrees Celsius for public forecast. Weather courtesy of forecast.io.

Current aviation weather report (METAR) for Penang International Airport

2024/04/18 01:00 (retrieved 18 minutes ago)

WMKP 180100Z 03004KT 320V070 8000 FEW017CB 29/26 Q1009 NOSIG

Closest aviation forecast (TAF) to Penang International Airport

Forecast is more than 12 hours old.

Closest forecast is Aden Adde International Airport, 3,298.7 nm (6,109.2 km) W.

2024/04/17 12:54 (retrieved 12 hours ago)

TAF HCMM 171100Z 1712/1818 20013KT 9999 SCT026 BECMG 1722/1803 19007KT -RA SCT020 BKN080 BECMG 1808/1811 21012KT NSW SCT025